createdAt,value
2023-02-22T00:01:36.251Z,1.80
2023-02-22T00:04:07.097Z,2.00
2023-02-22T00:06:34.981Z,2.03
2023-02-22T00:09:03.304Z,1.90
2023-02-22T00:11:32.157Z,1.77
2023-02-22T00:14:00.109Z,2.00
2023-02-22T00:16:28.202Z,2.10
2023-02-22T00:18:56.109Z,1.95
2023-02-22T00:21:25.344Z,2.10
2023-02-22T00:23:54.700Z,1.95
2023-02-22T00:26:23.472Z,2.17
2023-02-22T00:28:52.836Z,1.90
2023-02-22T00:31:21.107Z,2.05
2023-02-22T00:33:50.428Z,2.20
2023-02-22T00:36:18.586Z,1.92
2023-02-22T00:38:47.798Z,1.77
2023-02-22T00:41:16.429Z,1.85
2023-02-22T00:43:44.535Z,2.00
2023-02-22T00:46:14.893Z,2.10
2023-02-22T00:48:42.838Z,2.10
2023-02-22T00:51:11.980Z,1.92
2023-02-22T00:53:39.872Z,1.75
2023-02-22T00:56:09.426Z,1.80
2023-02-22T00:58:37.301Z,1.92
2023-02-22T01:01:05.441Z,2.22
2023-02-22T01:03:35.196Z,1.85
2023-02-22T01:06:03.375Z,1.83
2023-02-22T01:08:32.573Z,2.13
2023-02-22T01:11:00.441Z,1.90
2023-02-22T01:13:29.676Z,1.60
2023-02-22T01:15:57.686Z,2.03
2023-02-22T01:18:25.925Z,1.88
2023-02-22T01:20:54.034Z,1.90
2023-02-22T01:23:21.985Z,1.85
2023-02-22T01:25:50.296Z,2.10
2023-02-22T01:28:18.221Z,1.90
2023-02-22T01:30:47.508Z,1.80
2023-02-22T01:33:15.577Z,1.90
2023-02-22T01:35:46.146Z,1.95
2023-02-22T01:38:15.173Z,2.20
2023-02-22T01:40:44.446Z,1.83
2023-02-22T01:43:20.931Z,1.80
2023-02-22T01:45:54.398Z,1.70
2023-02-22T01:48:27.815Z,2.03
2023-02-22T01:50:58.336Z,1.73
2023-02-22T01:53:30.216Z,1.85
2023-02-22T01:55:58.051Z,1.80
2023-02-22T01:58:26.336Z,1.85
2023-02-22T02:00:55.679Z,2.05
2023-02-22T02:03:27.390Z,1.80
2023-02-22T02:05:56.759Z,1.80
2023-02-22T02:08:30.168Z,1.65
2023-02-22T02:10:58.987Z,1.77
2023-02-22T02:13:27.280Z,1.50
2023-02-22T02:15:56.821Z,1.85
2023-02-22T02:18:25.149Z,2.05
2023-02-22T02:21:20.446Z,2.03
2023-02-22T02:24:14.603Z,2.15
2023-02-22T02:26:56.305Z,1.70
2023-02-22T02:29:43.334Z,1.85
2023-02-22T02:32:28.425Z,1.65
2023-02-22T02:34:59.052Z,1.80
2023-02-22T02:37:34.199Z,1.98
2023-02-22T02:40:07.444Z,1.98
2023-02-22T02:42:37.321Z,1.90
2023-02-22T02:45:10.572Z,1.70
2023-02-22T02:47:41.551Z,1.90
2023-02-22T02:50:11.186Z,1.83
2023-02-22T02:52:39.243Z,1.88
2023-02-22T02:55:07.841Z,1.50
2023-02-22T02:57:35.747Z,1.70
2023-02-22T03:00:06.816Z,1.80
2023-02-22T03:02:41.412Z,1.67
2023-02-22T03:05:17.021Z,1.80
2023-02-22T03:07:48.233Z,1.67
2023-02-22T03:10:22.374Z,1.80
2023-02-22T03:12:52.722Z,1.55
2023-02-22T03:15:27.555Z,1.58
2023-02-22T03:18:02.779Z,1.80
2023-02-22T03:20:32.550Z,1.80
2023-02-22T03:23:05.621Z,1.92
2023-02-22T03:25:36.686Z,1.88
2023-02-22T03:28:06.184Z,1.80
2023-02-22T03:30:36.909Z,1.77
2023-02-22T03:33:09.013Z,1.60
2023-02-22T03:35:38.609Z,1.88
2023-02-22T03:38:08.287Z,1.60
2023-02-22T03:40:37.545Z,1.58
2023-02-22T03:43:07.599Z,1.60
2023-02-22T03:45:39.781Z,1.55
2023-02-22T03:48:22.090Z,1.70
2023-02-22T03:50:52.156Z,1.67
2023-02-22T03:53:23.102Z,1.88
2023-02-22T03:55:52.095Z,1.70
2023-02-22T03:58:22.688Z,1.50
2023-02-22T04:00:53.425Z,1.60
2023-02-22T04:03:23.144Z,1.60
2023-02-22T04:05:52.010Z,1.65
2023-02-22T04:08:20.658Z,1.77
2023-02-22T04:10:49.002Z,1.73
2023-02-22T04:13:20.208Z,1.40
2023-02-22T04:15:50.098Z,1.50
2023-02-22T04:18:18.710Z,1.55
2023-02-22T04:20:49.187Z,1.60
2023-02-22T04:23:26.898Z,1.55
2023-02-22T04:25:55.268Z,1.60
2023-02-22T04:28:23.903Z,1.50
2023-02-22T04:30:56.807Z,1.50
2023-02-22T04:33:24.949Z,1.60
2023-02-22T04:35:54.229Z,1.80
2023-02-22T04:38:22.188Z,1.70
2023-02-22T04:40:50.170Z,1.88
2023-02-22T04:43:18.083Z,1.88
2023-02-22T04:45:46.351Z,1.80
2023-02-22T04:48:14.420Z,1.67
2023-02-22T04:50:42.329Z,1.90
2023-02-22T04:53:11.561Z,1.83
2023-02-22T04:55:39.905Z,1.80
2023-02-22T04:58:09.515Z,1.98
2023-02-22T05:00:38.440Z,1.83
2023-02-22T05:03:07.131Z,1.75
2023-02-22T05:05:35.132Z,1.70
2023-02-22T05:08:03.075Z,1.92
2023-02-22T05:10:32.297Z,1.80
2023-02-22T05:13:00.257Z,1.55
2023-02-22T05:15:28.155Z,2.13
2023-02-22T05:17:56.033Z,1.80
2023-02-22T05:20:27.779Z,1.90
2023-02-22T05:22:56.554Z,1.77
2023-02-22T05:25:24.461Z,1.80
2023-02-22T05:27:54.245Z,1.80
2023-02-22T05:30:23.637Z,1.83
2023-02-22T05:32:51.606Z,1.90
2023-02-22T05:35:19.578Z,1.92
2023-02-22T05:37:47.608Z,1.58
2023-02-22T05:40:15.609Z,2.00
2023-02-22T05:42:43.487Z,1.90
2023-02-22T05:45:14.881Z,1.88
2023-02-22T05:47:42.868Z,2.10
2023-02-22T05:50:10.928Z,2.05
2023-02-22T05:52:39.558Z,1.90
2023-02-22T05:55:07.651Z,2.00
2023-02-22T05:57:35.801Z,1.80
2023-02-22T06:00:05.240Z,1.85
2023-02-22T06:02:42.090Z,1.85
2023-02-22T06:05:10.029Z,1.75
2023-02-22T06:07:37.934Z,1.90
2023-02-22T06:10:06.564Z,1.65
2023-02-22T06:12:34.459Z,1.70
2023-02-22T06:15:02.650Z,1.88
2023-02-22T06:17:30.646Z,1.90
2023-02-22T06:20:00.042Z,1.80
2023-02-22T06:22:28.109Z,1.90
2023-02-22T06:24:56.046Z,1.90
2023-02-22T06:27:23.886Z,1.88
2023-02-22T06:29:51.754Z,1.80
2023-02-22T06:32:19.667Z,1.90
2023-02-22T06:34:48.540Z,2.10
2023-02-22T06:37:17.859Z,1.90
2023-02-22T06:39:45.761Z,1.90
2023-02-22T06:42:13.745Z,2.10
2023-02-22T06:44:41.648Z,2.10
2023-02-22T06:47:09.592Z,2.00
2023-02-22T06:49:37.475Z,1.98
2023-02-22T06:52:05.937Z,1.83
2023-02-22T06:54:35.239Z,1.90
2023-02-22T06:57:03.109Z,1.80
2023-02-22T06:59:31.001Z,2.00
2023-02-22T07:01:59.170Z,1.90
2023-02-22T07:04:27.076Z,2.13
2023-02-22T07:06:54.941Z,2.10
2023-02-22T07:09:22.796Z,1.85
2023-02-22T07:11:52.006Z,1.90
2023-02-22T07:14:19.968Z,1.80
2023-02-22T07:16:47.840Z,1.90
2023-02-22T07:19:15.702Z,1.85
2023-02-22T07:21:43.650Z,2.17
2023-02-22T07:24:11.513Z,1.95
2023-02-22T07:26:40.456Z,2.00
2023-02-22T07:29:11.297Z,1.73
2023-02-22T07:31:39.359Z,2.10
2023-02-22T07:34:07.265Z,2.00
2023-02-22T07:36:35.151Z,2.30
2023-02-22T07:39:03.044Z,2.00
2023-02-22T07:41:30.937Z,1.95
2023-02-22T07:43:58.805Z,2.03
2023-02-22T07:46:28.013Z,2.00
2023-02-22T07:48:55.914Z,2.00
2023-02-22T07:51:23.922Z,2.10
2023-02-22T07:53:51.805Z,1.98
2023-02-22T07:56:19.693Z,2.05
2023-02-22T07:58:47.580Z,2.00
2023-02-22T08:01:15.642Z,2.20
2023-02-22T08:03:47.443Z,2.10
2023-02-22T08:06:15.348Z,2.10
2023-02-22T08:08:43.748Z,1.98
2023-02-22T08:11:11.614Z,2.15
2023-02-22T08:13:39.857Z,2.13
2023-02-22T08:16:08.041Z,1.90
2023-02-22T08:18:38.185Z,2.30
2023-02-22T08:21:07.571Z,1.90
2023-02-22T08:23:35.518Z,1.95
2023-02-22T08:26:07.274Z,2.10
2023-02-22T08:28:35.154Z,1.98
2023-02-22T08:31:03.345Z,2.08
2023-02-22T08:33:31.253Z,2.10
2023-02-22T08:35:59.235Z,2.00
2023-02-22T08:38:29.552Z,1.70
2023-02-22T08:40:57.490Z,2.00
2023-02-22T08:43:25.376Z,2.22
2023-02-22T08:45:55.085Z,1.88
2023-02-22T08:48:24.800Z,2.15
2023-02-22T08:50:52.689Z,2.00
2023-02-22T08:53:20.611Z,1.80
2023-02-22T08:55:50.386Z,2.00
2023-02-22T08:58:18.247Z,1.83
2023-02-22T09:00:46.173Z,1.90
2023-02-22T09:03:15.260Z,1.90
2023-02-22T09:05:43.696Z,1.85
2023-02-22T09:08:11.575Z,1.90
2023-02-22T09:10:40.601Z,1.85
2023-02-22T09:13:09.974Z,1.80
2023-02-22T09:15:38.309Z,1.80
2023-02-22T09:18:08.365Z,1.65
2023-02-22T09:20:36.882Z,2.00
2023-02-22T09:23:05.238Z,1.90
2023-02-22T09:25:34.182Z,1.88
2023-02-22T09:28:02.078Z,2.00
2023-02-22T09:30:32.875Z,1.92
2023-02-22T09:33:03.036Z,1.92
2023-02-22T09:35:31.234Z,1.90
2023-02-22T09:38:00.073Z,2.00
2023-02-22T09:40:30.296Z,1.67
2023-02-22T09:43:05.074Z,1.80
2023-02-22T09:45:36.931Z,1.70
2023-02-22T09:48:20.697Z,1.90
2023-02-22T09:50:49.829Z,1.90
2023-02-22T09:53:29.421Z,1.90
2023-02-22T09:55:59.023Z,1.90
2023-02-22T09:58:28.932Z,1.90
2023-02-22T10:00:59.628Z,2.00
2023-02-22T10:03:29.209Z,1.73
2023-02-22T10:06:00.102Z,1.80
2023-02-22T10:08:31.440Z,1.67
2023-02-22T10:11:04.217Z,1.80
2023-02-22T10:13:39.124Z,1.83
2023-02-22T10:16:11.781Z,1.90
2023-02-22T10:18:56.271Z,1.83
2023-02-22T10:21:36.943Z,1.80
2023-02-22T10:24:08.630Z,1.85
2023-02-22T10:26:37.750Z,1.98
2023-02-22T10:29:07.558Z,1.85
2023-02-22T10:31:39.616Z,1.95
2023-02-22T10:34:12.590Z,1.75
2023-02-22T10:36:40.593Z,1.70
2023-02-22T10:39:14.749Z,1.65
2023-02-22T10:41:45.588Z,1.70
2023-02-22T10:44:13.475Z,1.80
2023-02-22T10:46:42.689Z,1.70
2023-02-22T10:49:11.194Z,1.92
2023-02-22T10:51:39.543Z,1.63
2023-02-22T10:54:20.770Z,1.92
2023-02-22T10:56:48.852Z,1.50
2023-02-22T10:59:28.436Z,1.90
2023-02-22T11:01:57.622Z,1.63
2023-02-22T11:04:25.552Z,1.70
2023-02-22T11:07:09.709Z,1.80
2023-02-22T11:09:53.865Z,1.83
2023-02-22T11:12:26.568Z,1.83
2023-02-22T11:14:54.452Z,1.70
2023-02-22T11:17:31.526Z,1.63
2023-02-22T11:20:00.061Z,1.80
2023-02-22T11:22:30.853Z,1.67
2023-02-22T11:25:00.252Z,1.95
2023-02-22T11:27:34.194Z,1.90
2023-02-22T11:30:21.859Z,1.60
2023-02-22T11:32:52.700Z,1.70
2023-02-22T11:35:31.329Z,1.70
2023-02-22T11:38:17.136Z,1.85
2023-02-22T11:40:45.218Z,1.60
2023-02-22T11:43:16.845Z,1.65
2023-02-22T11:46:02.027Z,1.70
2023-02-22T11:48:34.715Z,2.00
2023-02-22T11:51:17.732Z,1.83
2023-02-22T11:53:54.254Z,1.70
2023-02-22T11:56:36.996Z,1.50
2023-02-22T11:59:11.509Z,1.80
2023-02-22T12:01:41.283Z,1.83
2023-02-22T12:04:34.294Z,1.90
2023-02-22T12:07:42.186Z,1.83
2023-02-22T12:10:18.639Z,1.73
2023-02-22T12:12:54.317Z,1.65
2023-02-22T12:15:27.300Z,1.58
2023-02-22T12:18:00.407Z,1.80
2023-02-22T12:20:39.714Z,1.75
2023-02-22T12:23:14.406Z,1.70
2023-02-22T12:25:45.196Z,1.67
2023-02-22T12:28:24.573Z,1.60
2023-02-22T12:30:55.596Z,1.80
2023-02-22T12:33:25.267Z,1.67
2023-02-22T12:35:55.825Z,1.73
2023-02-22T12:38:25.529Z,1.80
2023-02-22T12:40:57.052Z,1.67
2023-02-22T12:43:27.711Z,1.70
2023-02-22T12:45:59.134Z,1.90
2023-02-22T12:48:32.572Z,1.80
2023-02-22T12:51:05.273Z,1.73
2023-02-22T12:53:34.649Z,1.60
2023-02-22T12:56:07.750Z,1.75
2023-02-22T12:58:38.957Z,1.60
2023-02-22T13:01:13.044Z,1.60
2023-02-22T13:03:42.075Z,1.70
2023-02-22T13:06:22.035Z,1.60
2023-02-22T13:08:55.436Z,1.80
2023-02-22T13:11:26.199Z,1.75
2023-02-22T13:13:58.377Z,1.63
2023-02-22T13:16:32.229Z,1.55
2023-02-22T13:19:03.790Z,1.80
2023-02-22T13:21:39.674Z,1.63
2023-02-22T13:24:12.527Z,1.90
2023-02-22T13:26:41.868Z,1.70
2023-02-22T13:29:11.224Z,1.58
2023-02-22T13:32:02.652Z,1.50
2023-02-22T13:34:47.293Z,1.80
2023-02-22T13:37:38.070Z,1.60
2023-02-22T13:40:26.301Z,1.52
2023-02-22T13:43:28.339Z,1.65
2023-02-22T13:46:03.435Z,1.60
2023-02-22T13:48:58.518Z,1.80
2023-02-22T13:51:38.963Z,1.70
2023-02-22T13:54:09.850Z,1.73
2023-02-22T13:56:38.191Z,1.85
2023-02-22T13:59:06.119Z,1.70
2023-02-22T14:01:41.776Z,1.63
2023-02-22T14:04:39.638Z,1.63
2023-02-22T14:07:59.323Z,1.65
2023-02-22T14:10:46.399Z,1.60
2023-02-22T14:13:14.581Z,1.80
2023-02-22T14:16:20.227Z,1.70
2023-02-22T14:18:50.354Z,1.80
2023-02-22T14:21:19.274Z,1.65
2023-02-22T14:23:47.949Z,1.60
2023-02-22T14:26:20.050Z,1.50
2023-02-22T14:28:55.540Z,1.90
2023-02-22T14:31:35.297Z,1.90
2023-02-22T14:34:10.850Z,1.77
2023-02-22T14:36:48.460Z,1.77
2023-02-22T14:39:20.719Z,1.70
2023-02-22T14:41:54.652Z,1.50
2023-02-22T14:44:26.019Z,1.80
2023-02-22T14:46:55.137Z,1.58
2023-02-22T14:49:23.322Z,1.52
2023-02-22T14:51:55.861Z,1.67
2023-02-22T14:54:27.358Z,1.90
2023-02-22T14:57:00.583Z,1.85
2023-02-22T14:59:28.709Z,1.73
2023-02-22T15:02:11.353Z,2.00
2023-02-22T15:04:43.805Z,1.80
2023-02-22T15:07:22.300Z,2.00
2023-02-22T15:09:50.204Z,1.70
2023-02-22T15:12:24.761Z,2.00
2023-02-22T15:14:52.624Z,2.00
2023-02-22T15:17:21.464Z,1.60
2023-02-22T15:19:49.613Z,1.63
2023-02-22T15:22:20.839Z,1.85
2023-02-22T15:24:49.173Z,1.70
2023-02-22T15:27:19.468Z,1.98
2023-02-22T15:29:47.360Z,1.98
2023-02-22T15:32:21.732Z,2.00
2023-02-22T15:34:49.676Z,1.60
2023-02-22T15:37:24.957Z,1.98
2023-02-22T15:39:59.218Z,1.88
2023-02-22T15:42:30.458Z,1.77
2023-02-22T15:44:58.498Z,2.00
2023-02-22T15:47:29.154Z,1.95
2023-02-22T15:50:21.054Z,2.20
2023-02-22T15:52:53.012Z,2.10
2023-02-22T15:55:21.098Z,2.20
2023-02-22T15:57:50.320Z,2.33
2023-02-22T16:00:22.605Z,1.90
2023-02-22T16:02:51.217Z,2.10
2023-02-22T16:05:19.283Z,1.90
2023-02-22T16:07:49.747Z,2.10
2023-02-22T16:10:24.614Z,2.20
2023-02-22T16:13:06.101Z,2.00
2023-02-22T16:15:34.180Z,2.22
2023-02-22T16:18:25.508Z,1.92
2023-02-22T16:21:03.365Z,2.20
2023-02-22T16:23:33.504Z,2.20
2023-02-22T16:26:18.962Z,2.00
2023-02-22T16:28:53.065Z,2.10
2023-02-22T16:31:22.340Z,2.03
2023-02-22T16:33:51.132Z,2.20
2023-02-22T16:36:19.686Z,2.33
2023-02-22T16:38:48.484Z,1.80
2023-02-22T16:41:19.718Z,2.15
2023-02-22T16:43:50.742Z,1.95
2023-02-22T16:46:20.438Z,2.10
2023-02-22T16:48:48.638Z,2.10
2023-02-22T16:51:21.608Z,2.30
2023-02-22T16:53:49.839Z,2.30
2023-02-22T16:56:19.184Z,2.00
2023-02-22T16:58:49.673Z,2.03
2023-02-22T17:01:19.184Z,2.10
2023-02-22T17:03:47.804Z,2.13
2023-02-22T17:06:18.339Z,1.85
2023-02-22T17:08:46.762Z,2.20
2023-02-22T17:11:14.616Z,2.10
2023-02-22T17:13:42.656Z,2.10
2023-02-22T17:16:13.376Z,2.20
2023-02-22T17:18:43.126Z,2.20
2023-02-22T17:21:11.021Z,1.98
2023-02-22T17:23:38.923Z,2.33
2023-02-22T17:26:06.937Z,2.17
2023-02-22T17:28:34.842Z,2.38
2023-02-22T17:31:02.826Z,2.30
2023-02-22T17:33:32.739Z,2.38
2023-02-22T17:36:02.840Z,2.80
2023-02-22T17:38:30.969Z,2.33
2023-02-22T17:40:59.666Z,2.53
2023-02-22T17:43:28.709Z,2.58
2023-02-22T17:45:56.725Z,2.67
2023-02-22T17:48:24.905Z,2.50
2023-02-22T17:50:52.937Z,2.60
2023-02-22T17:53:24.674Z,2.47
2023-02-22T17:55:52.928Z,2.60
2023-02-22T17:58:20.911Z,2.60
2023-02-22T18:00:50.280Z,2.53
2023-02-22T18:03:21.499Z,2.58
2023-02-22T18:05:50.159Z,2.60
2023-02-22T18:08:18.040Z,2.55
2023-02-22T18:10:47.387Z,2.72
2023-02-22T18:13:16.754Z,2.40
2023-02-22T18:15:45.365Z,2.40
2023-02-22T18:18:13.502Z,2.40
2023-02-22T18:20:43.923Z,2.53
2023-02-22T18:23:13.861Z,2.60
2023-02-22T18:25:42.307Z,2.72
2023-02-22T18:28:11.561Z,2.58
2023-02-22T18:30:41.010Z,3.17
2023-02-22T18:33:11.187Z,3.03
2023-02-22T18:35:39.525Z,3.00
2023-02-22T18:38:07.567Z,3.60
2023-02-22T18:40:35.421Z,3.90
2023-02-22T18:43:03.322Z,3.35
2023-02-22T18:45:32.584Z,3.53
2023-02-22T18:48:00.460Z,3.95
2023-02-22T18:50:28.826Z,3.72
2023-02-22T18:52:56.717Z,3.20
2023-02-22T18:55:24.754Z,3.53
2023-02-22T18:57:52.667Z,4.03
2023-02-22T19:00:24.156Z,3.58
2023-02-22T19:02:53.645Z,3.55
2023-02-22T19:05:21.660Z,3.65
2023-02-22T19:07:50.348Z,3.30
2023-02-22T19:10:18.361Z,3.30
2023-02-22T19:12:46.313Z,3.90
2023-02-22T19:15:14.238Z,3.90
2023-02-22T19:17:42.892Z,3.50
2023-02-22T19:20:12.436Z,3.65
2023-02-22T19:22:40.347Z,3.83
2023-02-22T19:25:08.670Z,3.70
2023-02-22T19:27:36.573Z,4.00
2023-02-22T19:30:04.978Z,4.20
2023-02-22T19:32:33.769Z,4.35
2023-02-22T19:35:02.983Z,4.30
2023-02-22T19:37:33.972Z,4.45
2023-02-22T19:40:05.788Z,4.05
2023-02-22T19:42:33.703Z,4.13
2023-02-22T19:45:01.608Z,4.28
2023-02-22T19:47:29.542Z,4.40
2023-02-22T19:49:59.635Z,4.93
2023-02-22T19:52:29.236Z,4.22
2023-02-22T19:54:58.569Z,4.25
2023-02-22T19:57:29.359Z,4.65
2023-02-22T19:59:57.384Z,4.78
2023-02-22T20:02:27.670Z,4.32
2023-02-22T20:04:55.966Z,4.70
2023-02-22T20:07:24.032Z,4.53
2023-02-22T20:09:51.903Z,4.55
2023-02-22T20:12:21.374Z,4.70
2023-02-22T20:14:49.477Z,5.05
2023-02-22T20:17:17.337Z,4.85
2023-02-22T20:19:45.357Z,4.82
2023-02-22T20:22:13.267Z,4.90
2023-02-22T20:24:41.776Z,5.05
2023-02-22T20:27:09.805Z,5.10
2023-02-22T20:29:39.124Z,5.30
2023-02-22T20:32:07.552Z,5.07
2023-02-22T20:34:36.334Z,5.63
2023-02-22T20:37:04.742Z,6.22
2023-02-22T20:39:32.882Z,6.32
2023-02-22T20:42:02.662Z,5.72
2023-02-22T20:44:30.673Z,5.65
2023-02-22T20:47:00.208Z,5.47
2023-02-22T20:49:28.158Z,5.85
2023-02-22T20:51:56.145Z,5.43
2023-02-22T20:54:24.065Z,4.88
2023-02-22T20:56:53.111Z,5.10
2023-02-22T20:59:21.220Z,5.82
2023-02-22T21:01:49.982Z,5.40
2023-02-22T21:04:19.221Z,5.78
2023-02-22T21:06:47.616Z,5.70
2023-02-22T21:09:16.438Z,5.80
2023-02-22T21:11:44.676Z,5.57
2023-02-22T21:14:16.611Z,5.55
2023-02-22T21:16:46.513Z,5.28
2023-02-22T21:19:16.361Z,5.60
2023-02-22T21:21:45.596Z,5.72
2023-02-22T21:24:13.609Z,5.68
2023-02-22T21:26:41.542Z,6.32
2023-02-22T21:29:09.498Z,5.95
2023-02-22T21:31:37.485Z,5.88
2023-02-22T21:34:05.544Z,5.78
2023-02-22T21:36:33.453Z,5.80
2023-02-22T21:39:08.462Z,7.10
2023-02-22T21:41:39.161Z,6.20
2023-02-22T21:44:08.498Z,5.90
2023-02-22T21:46:36.441Z,6.00
2023-02-22T21:49:04.327Z,5.70
2023-02-22T21:51:32.721Z,5.82
2023-02-22T21:54:03.176Z,5.75
2023-02-22T21:56:32.392Z,6.57
2023-02-22T21:59:02.861Z,6.28
2023-02-22T22:01:31.780Z,6.18
2023-02-22T22:03:59.973Z,6.65
2023-02-22T22:06:28.636Z,6.50
2023-02-22T22:08:56.662Z,6.60
2023-02-22T22:11:25.957Z,6.40
2023-02-22T22:13:56.957Z,6.13
2023-02-22T22:16:27.268Z,6.82
2023-02-22T22:18:55.890Z,6.05
2023-02-22T22:21:24.813Z,6.30
2023-02-22T22:23:54.404Z,6.18
2023-02-22T22:26:24.572Z,6.38
2023-02-22T22:28:55.821Z,6.13
2023-02-22T22:31:24.670Z,5.85
2023-02-22T22:33:52.950Z,6.32
2023-02-22T22:36:21.285Z,6.20
2023-02-22T22:38:49.197Z,5.82
2023-02-22T22:41:18.822Z,6.30
2023-02-22T22:43:47.241Z,6.18
2023-02-22T22:46:17.460Z,6.15
2023-02-22T22:48:47.045Z,6.10
2023-02-22T22:51:15.966Z,5.72
2023-02-22T22:53:45.375Z,6.18
2023-02-22T22:56:15.034Z,5.82
2023-02-22T22:58:43.920Z,6.07
2023-02-22T23:01:19.744Z,6.30
2023-02-22T23:03:55.096Z,5.72
2023-02-22T23:06:25.658Z,5.72
2023-02-22T23:08:59.978Z,5.65
2023-02-22T23:11:28.845Z,5.60
2023-02-22T23:13:56.828Z,5.50
2023-02-22T23:16:26.051Z,5.05
2023-02-22T23:18:53.986Z,5.82
2023-02-22T23:21:24.275Z,5.47
2023-02-22T23:23:55.467Z,5.47
2023-02-22T23:26:26.547Z,5.32
2023-02-22T23:28:55.694Z,5.20
2023-02-22T23:31:24.098Z,5.82
2023-02-22T23:33:55.644Z,5.32
2023-02-22T23:36:23.724Z,5.00
2023-02-22T23:38:51.563Z,5.05
2023-02-22T23:41:19.741Z,5.00
2023-02-22T23:43:47.891Z,4.97
2023-02-22T23:46:18.574Z,4.97
2023-02-22T23:48:50.739Z,4.90
2023-02-22T23:51:24.940Z,5.10
2023-02-22T23:53:55.555Z,5.07
2023-02-22T23:56:24.713Z,4.85
2023-02-22T23:58:52.615Z,4.85
